METAR Analyzer

一覧表示

Hello, Guest. (Login)

RJSA/AOJ  -  青森

観測日時
2021-01-27 00:00 (UTC) (66分前)
気温
5
露点
3
湿数
2
相対湿度
86.9%
QNH
1008hPa
推定現地気圧
984.5hPa
推定海面気圧
1008.7hPa
体感温度
-7.6
(無風時)
8.4
HI
3.8
気温前日比
+8
体感温度前日比
-2.3
HI前日比
+8.8
水平視程
>10000m
鉛直視程
データなし
雲底高度
1500ft AGL
V/I
VMC (VFR)
RVR
No RVR data
卓越風
9kt from 250°
ガスト
No gust
降水
弱いしゅう雨性の雨
その他の天気
報告なし
少しの雲 @ 1000ft AGL / 隙間のある雲 @ 1500ft AGL / 隙間のある雲 @ 3500ft AGL

RJSA 270000Z 25009KT 9999 -SHRA FEW010 BKN015 BKN035 05/03 Q1008

RJSM/MSJ  -  三沢飛行場

観測日時
2021-01-27 00:00 (UTC) (66分前)
気温
8
露点
4
湿数
4
相対湿度
75.8%
QNH
1008hPa
推定現地気圧
1003.7hPa
推定海面気圧
1008.1hPa
体感温度
-2.4
(無風時)
11
HI
6.8
気温前日比
+8
体感温度前日比
+7.7
HI前日比
+8.7
水平視程
>10000m
鉛直視程
データなし
雲底高度
3500ft AGL
V/I
VMC (VFR)
RVR
No RVR data
卓越風
8kt from 250°
ガスト
No gust
降水
報告なし
その他の天気
報告なし
少しの雲 @ 2000ft AGL / 隙間のある雲 @ 3500ft AGL / 隙間のある雲 @ 20000ft AGL

RJSM 270000Z 25008KT 9999 FEW020 BKN035 BKN200 08/04 Q1008

RJSI/HNA  -  花巻

観測日時
2021-01-27 00:00 (UTC) (66分前)
気温
3
露点
3
湿数
0
相対湿度
100%
QNH
1010hPa
推定現地気圧
999.3hPa
推定海面気圧
1010.5hPa
体感温度
-2.8
(無風時)
6.3
HI
2
気温前日比
+7
体感温度前日比
+7.6
HI前日比
+7.9
水平視程
1600m
鉛直視程
データなし
雲底高度
2500ft AGL
V/I
SVMC (SVFR)
RVR (R20)
2000m ()
卓越風
2kt from VRB
ガスト
No gust
降水
弱いしゅう雨性の雨
その他の天気
散在する霧 / もや
少しの雲 @ 100ft AGL / 散在する雲 @ 400ft AGL / 隙間のある雲 @ 2500ft AGL

RJSI 270000Z VRB02KT 1600 R20/2000N -SHRA BCFG BR FEW001 SCT004 BKN025 03/03 Q1010

RJSR/ONJ  -  大館能代

観測日時
2021-01-27 00:00 (UTC) (66分前)
気温
5
露点
5
湿数
0
相対湿度
100%
QNH
1010hPa
推定現地気圧
1000.0hPa
推定海面気圧
1010.4hPa
体感温度
-5.3
(無風時)
8.1
HI
4.2
気温前日比
+10
体感温度前日比
-4.4
HI前日比
+11
水平視程
6000m
鉛直視程
データなし
雲底高度
1500ft AGL
V/I
VMC (VFR)
RVR
No RVR data
卓越風
5kt from 240° (170° ~ 280°)
ガスト
No gust
降水
弱いしゅう雨性の雨
その他の天気
報告なし
少しの雲 @ 300ft AGL / 散在する雲 @ 1000ft AGL / 隙間のある雲 @ 1500ft AGL

RJSR 270000Z 24005KT 170V280 6000 -SHRA FEW003 SCT010 BKN015 05/05 Q1010

RJSK/AXT  -  秋田

観測日時
2021-01-27 00:00 (UTC) (66分前)
気温
4
露点
4
湿数
0
相対湿度
100%
QNH
1011hPa
推定現地気圧
999.9hPa
推定海面気圧
1011.4hPa
体感温度
-1.7
(無風時)
7.2
HI
3.1
気温前日比
+7
体感温度前日比
+17.4
HI前日比
+7.9
水平視程
3000m
鉛直視程
データなし
雲底高度
400ft AGL
V/I
SVMC (SVFR)
RVR (R28)
2000m ()
卓越風
2kt from 100°
ガスト
No gust
降水
弱いしゅう雨性の雨
その他の天気
部分的に霧 / もや
少しの雲 @ 0ft AGL / 隙間のある雲 @ 400ft AGL / 隙間のある雲 @ 800ft AGL

RJSK 270000Z 10002KT 3000 R28/2000N -SHRA PRFG BR FEW000 BKN004 BKN008 04/04 Q1011

RJSS/SDJ  -  仙台

観測日時
2021-01-27 00:00 (UTC) (66分前)
気温
7
露点
6
湿数
1
相対湿度
93.3%
QNH
1010hPa
推定現地気圧
1009.8hPa
推定海面気圧
1010.0hPa
体感温度
-1.1
(無風時)
10
HI
6.2
気温前日比
+4
体感温度前日比
+3.8
HI前日比
+4.9
水平視程
>10000m
鉛直視程
データなし
雲底高度
No dense clouds
V/I
VMC (VFR)
RVR
No RVR data
卓越風
4kt from 20° (360° ~ 60°)
ガスト
No gust
降水
報告なし
その他の天気
もや
少しの雲 @ 1000ft AGL / 散在する雲 @ 13000ft AGL

RJSS 270000Z 02004KT 360V060 9999 BR FEW010 SCT130 07/06 Q1010

RJSY/SYO  -  庄内

観測日時
2021-01-27 00:00 (UTC) (66分前)
気温
9
露点
8
湿数
1
相対湿度
93.4%
QNH
1013hPa
推定現地気圧
1010.4hPa
推定海面気圧
1013.1hPa
体感温度
-4.3
(無風時)
11.8
HI
8.4
気温前日比
+9
体感温度前日比
+9.1
HI前日比
+9.9
水平視程
8000m
鉛直視程
データなし
雲底高度
2000ft AGL
V/I
VMC (VFR)
RVR
No RVR data
卓越風
13kt from 260°
ガスト
No gust
降水
弱いしゅう雨性の雨
その他の天気
報告なし
少しの雲 @ 100ft AGL / 散在する雲 @ 1000ft AGL / 隙間のある雲 @ 2000ft AGL

RJSY 270000Z 26013KT 8000 -SHRA FEW001 SCT010 BKN020 09/08 Q1013

RJSC/GAJ  -  山形

観測日時
2021-01-27 00:00 (UTC) (66分前)
気温
3
露点
3
湿数
0
相対湿度
100%
QNH
1012hPa
推定現地気圧
999.5hPa
推定海面気圧
1012.5hPa
体感温度
0.2
(無風時)
6.3
HI
2
気温前日比
+7
体感温度前日比
+13.8
HI前日比
+7.7
水平視程
7000m
鉛直視程
データなし
雲底高度
5000ft AGL
V/I
VMC (VFR)
RVR
No RVR data
卓越風
1kt from VRB
ガスト
No gust
降水
弱いしゅう雨性の雨
その他の天気
報告なし
少しの雲 @ 500ft AGL / 散在する雲 @ 4000ft AGL / 隙間のある雲 @ 5000ft AGL

RJSC 270000Z VRB01KT 7000 -SHRA FEW005 SCT040 BKN050 03/03 Q1012

RJSF/FKS  -  福島

観測日時
2021-01-27 00:00 (UTC) (66分前)
気温
9
露点
8
湿数
1
相対湿度
93.4%
QNH
1011hPa
推定現地気圧
967.2hPa
推定海面気圧
1011.5hPa
体感温度
2.7
(無風時)
11.8
HI
8.4
気温前日比
+9
体感温度前日比
-1.2
HI前日比
+9.9
水平視程
7000m
鉛直視程
データなし
雲底高度
8000ft AGL
V/I
VMC (VFR)
RVR
No RVR data
卓越風
3kt from 10°
ガスト
No gust
降水
報告なし
その他の天気
報告なし
少しの雲 @ 200ft AGL / 隙間のある雲 @ 8000ft AGL / 隙間のある雲 @ 不明な高さ

RJSF 270000Z 01003KT 7000 FEW002 BKN080 BKN/// 09/08 Q1011

210.2msec